Time;durP1;ratioP1;P1;durP2;ratioP2;P2;SDS_P1;SDS_P2;PMS_P1;PMS_P2;Temp;Humidity;BMP_temperature;BMP_pressure;BME280_temperature;BME280_humidity;BME280_pressure;Samples;Min_cycle;Max_cycle;Signal;HPM_P1;HPM_P2
2022/11/19 00:00:21;;;;;;;9.35;6.38;;;13.60;81.60;;;;;;5081303;28;20046;-82
2022/11/19 00:02:48;;;;;;;9.32;6.50;;;13.60;81.60;;;;;;5081437;28;20030;-82
2022/11/19 00:05:14;;;;;;;9.98;5.82;;;13.70;81.60;;;;;;5081195;28;20067;-82
2022/11/19 00:07:40;;;;;;;8.35;5.93;;;13.60;81.70;;;;;;5081635;28;20035;-82
2022/11/19 00:10:05;;;;;;;9.00;6.13;;;13.60;81.70;;;;;;5099159;28;20087;-82
2022/11/19 00:15:15;;;;;;;8.98;6.35;;;13.60;81.70;;;;;;5099963;28;20499;-82
2022/11/19 00:17:40;;;;;;;9.30;6.45;;;13.60;81.90;;;;;;5098435;28;20032;-81
2022/11/19 00:20:07;;;;;;;9.27;6.60;;;13.60;81.80;;;;;;5098139;28;20050;-83
2022/11/19 00:22:32;;;;;;;8.88;6.20;;;13.60;82.00;;;;;;5097476;28;20024;-82
2022/11/19 00:24:58;;;;;;;8.38;6.10;;;13.60;81.90;;;;;;5079819;28;20096;-81
2022/11/19 00:27:23;;;;;;;9.10;6.35;;;13.60;81.90;;;;;;5080048;28;20115;-82
2022/11/19 00:29:49;;;;;;;8.57;6.53;;;13.60;81.90;;;;;;5079339;28;20020;-83
2022/11/19 00:32:14;;;;;;;8.73;6.35;;;13.60;81.90;;;;;;5099342;28;20541;-82
2022/11/19 00:34:40;;;;;;;9.30;6.35;;;13.50;81.80;;;;;;5099959;28;20472;-83
2022/11/19 00:37:05;;;;;;;9.40;6.72;;;13.50;81.80;;;;;;5098860;28;20028;-81
2022/11/19 00:39:31;;;;;;;9.98;6.80;;;13.50;81.80;;;;;;5079094;28;20031;-82
2022/11/19 00:41:56;;;;;;;8.15;6.25;;;13.70;81.90;;;;;;5078735;28;20031;-83
2022/11/19 00:44:22;;;;;;;8.55;6.53;;;13.50;81.80;;;;;;5097180;28;20395;-81
2022/11/19 00:46:47;;;;;;;7.82;5.82;;;13.50;81.70;;;;;;5096627;28;20099;-81
2022/11/19 00:49:13;;;;;;;10.07;6.72;;;13.50;81.80;;;;;;5078448;28;20016;-81
2022/11/19 00:51:38;;;;;;;8.88;6.38;;;13.50;81.80;;;;;;5077992;28;20024;-81
2022/11/19 00:54:04;;;;;;;9.77;7.22;;;13.60;81.80;;;;;;5078587;28;20020;-82
2022/11/19 00:56:30;;;;;;;9.13;6.22;;;13.60;81.70;;;;;;5078136;28;20024;-81
2022/11/19 00:58:55;;;;;;;9.82;6.43;;;13.50;81.70;;;;;;5078057;28;20028;-81
2022/11/19 01:01:23;;;;;;;9.38;6.63;;;13.50;81.70;;;;;;5077837;28;20068;-83
2022/11/19 01:03:49;;;;;;;8.82;6.40;;;13.50;81.70;;;;;;5077593;28;20035;-82
2022/11/19 01:06:17;;;;;;;8.70;6.20;;;13.50;81.70;;;;;;5077239;28;20043;-82
2022/11/19 01:08:44;;;;;;;7.80;5.75;;;13.50;81.80;;;;;;5096905;28;20031;-82
2022/11/19 01:11:18;;;;;;;9.13;6.20;;;13.50;82.10;;;;;;5097896;28;20024;-81
2022/11/19 01:13:44;;;;;;;8.30;6.10;;;13.60;82.10;;;;;;5077284;28;20028;-81
2022/11/19 01:16:12;;;;;;;8.30;6.28;;;13.50;82.00;;;;;;5077190;28;20031;-83
2022/11/19 01:18:39;;;;;;;8.02;5.60;;;13.60;81.90;;;;;;5077630;28;20032;-82
2022/11/19 01:21:06;;;;;;;8.95;6.35;;;13.60;81.80;;;;;;5076750;28;20028;-82
2022/11/19 01:23:32;;;;;;;8.88;5.80;;;13.60;81.70;;;;;;5076794;28;20028;-84
2022/11/19 01:25:58;;;;;;;9.00;6.22;;;13.60;81.50;;;;;;5080123;28;20031;-82
2022/11/19 01:28:24;;;;;;;9.07;6.47;;;13.60;81.50;;;;;;5085563;28;20028;-81
2022/11/19 01:30:49;;;;;;;9.35;6.32;;;13.60;81.60;;;;;;5087691;28;20043;-81
2022/11/19 01:33:15;;;;;;;8.57;6.28;;;13.60;81.60;;;;;;5072273;28;20066;-81
2022/11/19 01:35:41;;;;;;;8.48;6.40;;;13.60;81.60;;;;;;5079287;28;20132;-82
2022/11/19 01:38:07;;;;;;;8.07;6.20;;;13.60;81.70;;;;;;5089034;28;20127;-82
2022/11/19 01:40:39;;;;;;;8.55;6.07;;;13.60;81.80;;;;;;5089298;28;20028;-82
2022/11/19 01:43:09;;;;;;;8.38;6.30;;;13.50;81.80;;;;;;5082026;28;20016;-81
2022/11/19 01:45:53;;;;;;;8.35;5.85;;;13.50;81.90;;;;;;5086388;28;20506;-81
2022/11/19 01:48:26;;;;;;;8.65;6.43;;;13.50;81.80;;;;;;5066875;28;20492;-81
2022/11/19 01:51:01;;;;;;;8.50;6.38;;;13.60;81.90;;;;;;5060139;28;20025;-81
2022/11/19 01:53:34;;;;;;;9.75;6.32;;;13.50;81.90;;;;;;5064151;28;20044;-78
2022/11/19 01:56:02;;;;;;;8.25;6.20;;;13.50;81.80;;;;;;5057409;28;20028;-81
2022/11/19 01:58:34;;;;;;;8.95;6.40;;;13.50;81.80;;;;;;5068394;28;20032;-79
2022/11/19 02:01:01;;;;;;;8.45;6.38;;;13.50;81.80;;;;;;5059288;28;20074;-79
2022/11/19 02:03:29;;;;;;;9.60;6.60;;;13.40;81.70;;;;;;5057333;28;20025;-80
2022/11/19 02:05:55;;;;;;;8.18;6.20;;;13.50;81.80;;;;;;5075851;28;20427;-81
2022/11/19 02:08:40;;;;;;;8.82;6.32;;;13.50;81.80;;;;;;5098019;28;20024;-81
2022/11/19 02:11:24;;;;;;;8.07;6.15;;;13.50;81.70;;;;;;5079736;28;20051;-81
2022/11/19 02:14:14;;;;;;;8.27;6.07;;;13.50;81.80;;;;;;5098335;28;20025;-81
2022/11/19 02:16:58;;;;;;;8.88;6.38;;;13.50;81.70;;;;;;5102268;28;20024;-82
2022/11/19 02:19:50;;;;;;;9.70;6.28;;;13.50;81.70;;;;;;5084799;28;20028;-83
2022/11/19 02:22:53;;;;;;;7.70;5.80;;;13.50;81.70;;;;;;5083863;28;20503;-79
2022/11/19 02:26:06;;;;;;;9.05;6.40;;;13.50;81.60;;;;;;5102583;28;20123;-82
2022/11/19 02:28:52;;;;;;;8.50;6.38;;;13.50;81.70;;;;;;5018453;28;20028;-83
2022/11/19 02:31:24;;;;;;;8.25;6.22;;;13.50;81.70;;;;;;5081436;28;20036;-81
2022/11/19 02:33:58;;;;;;;9.23;6.70;;;13.50;81.70;;;;;;5075080;28;20032;-82
2022/11/19 02:36:58;;;;;;;7.95;6.03;;;13.50;81.70;;;;;;5092396;28;20059;-82
2022/11/19 02:39:46;;;;;;;9.13;6.53;;;13.50;82.20;;;;;;5081098;28;20070;-81
2022/11/19 02:42:33;;;;;;;8.60;6.10;;;13.50;82.10;;;;;;5062175;28;20035;-82
2022/11/19 02:45:13;;;;;;;8.75;6.07;;;13.50;81.90;;;;;;5079265;28;20031;-82
2022/11/19 02:47:50;;;;;;;8.40;6.03;;;13.50;81.70;;;;;;5080119;28;20028;-81
2022/11/19 02:50:32;;;;;;;7.90;5.90;;;13.60;81.70;;;;;;5080341;28;20056;-81
2022/11/19 02:52:58;;;;;;;8.00;5.70;;;13.60;81.60;;;;;;5061825;28;20024;-82
2022/11/19 02:55:24;;;;;;;7.70;5.60;;;13.60;81.60;;;;;;5070967;28;20050;-82
2022/11/19 03:06:33;;;;;;;8.88;6.30;;;13.50;81.70;;;;;;5099931;28;20498;-81
2022/11/19 03:08:59;;;;;;;8.07;5.97;;;13.50;81.70;;;;;;5099176;28;20097;-81
2022/11/19 03:11:30;;;;;;;8.40;6.00;;;13.50;81.90;;;;;;5079905;28;20020;-81
2022/11/19 03:17:52;;;;;;;8.25;5.82;;;13.50;81.90;;;;;;5102818;28;20038;-82
2022/11/19 03:20:26;;;;;;;8.18;6.00;;;13.50;81.80;;;;;;5101343;28;20032;-82
2022/11/19 03:23:01;;;;;;;8.52;6.20;;;13.50;81.90;;;;;;5083969;28;20028;-83
2022/11/19 03:25:49;;;;;;;9.02;6.30;;;13.50;81.90;;;;;;5101341;28;20066;-82
2022/11/19 03:28:20;;;;;;;7.90;5.85;;;13.50;81.90;;;;;;5083420;28;20095;-82
2022/11/19 03:30:46;;;;;;;;;;;13.50;81.80;;;;;;5101689;28;20024;-81
2022/11/19 03:33:18;;;;;;;8.10;6.15;;;13.50;81.90;;;;;;5082210;28;19904;-82
2022/11/19 03:35:54;;;;;;;7.78;5.60;;;13.50;81.90;;;;;;5091223;28;20039;-83
2022/11/19 03:38:47;;;;;;;9.30;6.15;;;13.50;81.80;;;;;;5062780;28;20603;-82
2022/11/19 03:41:16;;;;;;;8.15;6.03;;;13.50;81.80;;;;;;5091838;28;20024;-82
2022/11/19 03:43:45;;;;;;;9.85;6.05;;;13.40;81.70;;;;;;5080254;28;20571;-82
2022/11/19 03:46:15;;;;;;;8.50;6.32;;;13.50;81.80;;;;;;5085162;28;20368;-82
2022/11/19 03:48:46;;;;;;;8.48;5.90;;;13.50;81.80;;;;;;5085835;28;20067;-82
2022/11/19 03:51:37;;;;;;;8.27;6.18;;;13.50;81.80;;;;;;5078511;28;20534;-80
2022/11/19 03:54:03;;;;;;;7.88;5.93;;;13.50;81.70;;;;;;5073352;28;20055;-82
2022/11/19 03:56:31;;;;;;;8.23;5.93;;;13.40;81.70;;;;;;5067759;28;20445;-81
2022/11/19 03:58:58;;;;;;;8.00;5.97;;;13.50;81.80;;;;;;5068355;28;20033;-81
2022/11/19 04:01:23;;;;;;;7.65;6.03;;;13.40;81.70;;;;;;5059735;28;20028;-81
2022/11/19 04:06:33;;;;;;;7.38;5.65;;;13.50;82.10;;;;;;5083099;28;20395;-81
2022/11/19 04:08:58;;;;;;;7.80;5.80;;;13.50;82.00;;;;;;5081145;28;20028;-83
2022/11/19 04:11:24;;;;;;;8.55;6.10;;;13.50;82.00;;;;;;5085381;28;20029;-82
2022/11/19 04:13:49;;;;;;;7.95;6.00;;;13.50;81.90;;;;;;5097192;28;20024;-82
2022/11/19 04:16:15;;;;;;;8.30;6.07;;;13.50;81.70;;;;;;5069159;28;20055;-82
2022/11/19 04:18:40;;;;;;;8.60;6.22;;;13.50;81.60;;;;;;5063461;28;20031;-82
2022/11/19 04:21:06;;;;;;;8.57;5.97;;;13.50;81.50;;;;;;5058941;28;20032;-80
2022/11/19 04:23:31;;;;;;;7.72;5.57;;;13.50;81.50;;;;;;5063149;28;20074;-83
2022/11/19 04:25:57;;;;;;;7.97;6.25;;;13.50;81.50;;;;;;5059210;28;20028;-81
2022/11/19 04:28:22;;;;;;;8.10;5.50;;;13.50;81.70;;;;;;5091498;28;20032;-81
2022/11/19 04:30:48;;;;;;;8.13;6.20;;;13.50;81.70;;;;;;5078545;28;20487;-81
2022/11/19 04:33:13;;;;;;;7.35;5.57;;;13.50;81.70;;;;;;5076551;28;20034;-83
2022/11/19 04:35:39;;;;;;;7.72;5.78;;;13.40;81.70;;;;;;5098604;28;20028;-82
2022/11/19 04:38:04;;;;;;;8.35;6.18;;;13.40;81.80;;;;;;5066639;28;20024;-81
2022/11/19 04:40:30;;;;;;;7.97;5.65;;;13.40;81.80;;;;;;5075894;28;20074;-82
2022/11/19 04:42:55;;;;;;;8.18;5.80;;;13.40;81.80;;;;;;5058410;28;20066;-81
2022/11/19 04:45:21;;;;;;;7.78;5.85;;;13.40;81.80;;;;;;5078392;28;20078;-82
2022/11/19 04:47:46;;;;;;;7.82;5.60;;;13.50;81.90;;;;;;5078083;28;20020;-81
2022/11/19 04:50:12;;;;;;;8.60;6.20;;;13.40;81.80;;;;;;5096261;28;20032;-80
2022/11/19 04:52:37;;;;;;;8.20;5.90;;;13.40;81.80;;;;;;5077315;28;20031;-81
2022/11/19 04:55:03;;;;;;;8.00;5.80;;;13.40;81.80;;;;;;5077706;28;20024;-81
2022/11/19 04:57:29;;;;;;;8.15;5.93;;;13.40;81.80;;;;;;5077489;28;20063;-81
2022/11/19 04:59:54;;;;;;;8.27;6.05;;;13.40;81.70;;;;;;5098418;28;20081;-82
2022/11/19 05:02:20;;;;;;;7.45;5.53;;;13.40;81.70;;;;;;5070096;28;20025;-81
2022/11/19 05:04:45;;;;;;;8.68;6.13;;;13.40;81.80;;;;;;5064223;28;20040;-83
2022/11/19 05:07:11;;;;;;;7.78;5.60;;;13.40;81.70;;;;;;5069211;28;20546;-80
2022/11/19 05:09:36;;;;;;;8.00;6.00;;;13.40;81.70;;;;;;5082524;28;20128;-81
2022/11/19 05:12:02;;;;;;;7.88;5.80;;;13.40;81.70;;;;;;5080405;28;20028;-82
2022/11/19 05:14:27;;;;;;;7.53;5.53;;;13.40;81.70;;;;;;5099088;28;20460;-81
2022/11/19 05:16:53;;;;;;;8.00;5.78;;;13.40;81.60;;;;;;5097874;28;20480;-82
2022/11/19 05:19:18;;;;;;;8.15;5.80;;;13.40;81.60;;;;;;5082137;28;20024;-83
2022/11/19 05:21:44;;;;;;;7.78;5.68;;;13.40;81.70;;;;;;5098362;28;20020;-81
2022/11/19 05:24:09;;;;;;;8.38;5.82;;;13.40;81.70;;;;;;5079335;28;20055;-81
2022/11/19 05:26:35;;;;;;;7.65;5.65;;;13.40;81.60;;;;;;5060440;28;20112;-81
2022/11/19 05:29:00;;;;;;;8.43;6.00;;;13.40;81.60;;;;;;5083068;28;20020;-81
2022/11/19 05:31:26;;;;;;;7.78;5.55;;;13.40;81.70;;;;;;5071686;28;20016;-81
2022/11/19 05:33:51;;;;;;;7.10;5.40;;;13.30;81.90;;;;;;5094777;28;20028;-81
2022/11/19 05:36:17;;;;;;;8.05;5.68;;;13.40;82.00;;;;;;5086023;28;20024;-81
2022/11/19 05:38:42;;;;;;;7.28;5.20;;;13.40;81.80;;;;;;5087569;28;20032;-82
2022/11/19 05:41:08;;;;;;;7.75;5.85;;;13.40;81.60;;;;;;5096455;28;20035;-81
2022/11/19 05:43:33;;;;;;;8.05;6.13;;;13.50;81.70;;;;;;5094806;28;20029;-80
2022/11/19 05:46:00;;;;;;;7.45;5.32;;;13.50;81.50;;;;;;5074365;28;20028;-79
2022/11/19 05:48:26;;;;;;;7.82;5.53;;;13.50;81.40;;;;;;5080475;28;20111;-78
2022/11/19 05:50:52;;;;;;;8.02;5.75;;;13.50;81.40;;;;;;5079884;28;20032;-78
2022/11/19 05:53:17;;;;;;;7.90;5.63;;;13.50;81.40;;;;;;5103225;28;20107;-84
2022/11/19 05:55:43;;;;;;;7.90;5.80;;;13.40;81.40;;;;;;5083705;28;20020;-81
2022/11/19 05:58:08;;;;;;;7.65;5.38;;;13.40;81.50;;;;;;5081355;28;20503;-81
2022/11/19 06:00:34;;;;;;;7.57;5.20;;;13.40;81.70;;;;;;5066819;28;20107;-79
2022/11/19 06:02:59;;;;;;;7.30;5.35;;;13.40;81.70;;;;;;5098656;28;20019;-83
2022/11/19 06:05:25;;;;;;;7.82;5.72;;;13.40;81.70;;;;;;5104992;28;20066;-81
2022/11/19 06:07:50;;;;;;;8.00;5.82;;;13.40;81.70;;;;;;5078865;28;20048;-81
2022/11/19 06:10:16;;;;;;;7.95;5.80;;;13.40;81.60;;;;;;5081496;28;20028;-80
2022/11/19 06:12:45;;;;;;;8.15;6.00;;;13.40;81.50;;;;;;5108660;28;20080;-80
2022/11/19 06:15:11;;;;;;;7.75;5.40;;;13.40;81.50;;;;;;5083755;28;20074;-81
2022/11/19 06:17:36;;;;;;;8.75;5.90;;;13.40;81.50;;;;;;5064715;28;20031;-78
2022/11/19 06:20:02;;;;;;;19.35;7.65;;;13.40;81.20;;;;;;5081205;28;20025;-79
2022/11/19 06:22:28;;;;;;;15.75;6.53;;;13.30;79.10;;;;;;5062362;28;20059;-81
2022/11/19 06:24:53;;;;;;;11.60;6.57;;;13.30;79.60;;;;;;5078246;28;20541;-81
2022/11/19 06:27:19;;;;;;;10.52;6.68;;;13.30;79.90;;;;;;5074523;28;20482;-81
2022/11/19 06:29:44;;;;;;;23.55;7.68;;;13.30;79.80;;;;;;5065330;28;20027;-81
2022/11/19 06:32:10;;;;;;;14.57;6.78;;;13.30;79.10;;;;;;5064566;28;20031;-83
2022/11/19 06:34:36;;;;;;;15.68;7.18;;;13.30;79.60;;;;;;5063969;28;20021;-79
2022/11/19 06:37:01;;;;;;;17.65;7.25;;;13.30;79.40;;;;;;5066990;28;20031;-79
2022/11/19 06:39:27;;;;;;;22.40;7.55;;;13.30;79.20;;;;;;5064342;28;20024;-80
2022/11/19 06:41:53;;;;;;;19.63;7.60;;;13.30;79.60;;;;;;5077621;28;20657;-79
2022/11/19 06:44:18;;;;;;;21.38;7.63;;;13.30;79.10;;;;;;5079728;28;20024;-79
2022/11/19 06:46:44;;;;;;;11.73;6.95;;;13.30;79.20;;;;;;5072085;28;20085;-79
2022/11/19 06:49:09;;;;;;;17.40;7.25;;;13.30;79.30;;;;;;5070215;28;20092;-80
2022/11/19 06:51:35;;;;;;;13.57;7.20;;;13.30;79.20;;;;;;5088406;28;20590;-80
2022/11/19 06:54:01;;;;;;;14.43;6.80;;;13.30;79.30;;;;;;5089055;28;20506;-82
2022/11/19 06:56:26;;;;;;;14.48;7.47;;;13.30;79.30;;;;;;5071363;28;20033;-81
2022/11/19 06:58:56;;;;;;;14.95;6.95;;;13.30;79.20;;;;;;5077319;28;20187;-81
2022/11/19 07:01:22;;;;;;;12.60;6.72;;;13.30;79.20;;;;;;5076029;28;20032;-81
2022/11/19 07:03:47;;;;;;;11.43;6.20;;;13.30;79.90;;;;;;5124696;28;20027;-81
2022/11/19 07:06:13;;;;;;;16.02;6.90;;;13.30;80.00;;;;;;5072357;28;20016;-81
2022/11/19 07:08:38;;;;;;;12.68;6.80;;;13.30;79.80;;;;;;5090783;28;20044;-79
2022/11/19 07:11:24;;;;;;;11.10;6.50;;;13.30;79.60;;;;;;5087781;28;20503;-78
2022/11/19 07:13:56;;;;;;;12.32;6.57;;;13.40;79.30;;;;;;5093649;28;20024;-81
2022/11/19 07:16:21;;;;;;;11.00;6.68;;;13.40;79.30;;;;;;5083188;28;20043;-81
2022/11/19 07:18:47;;;;;;;13.40;7.10;;;13.40;79.20;;;;;;5083150;28;20032;-79
2022/11/19 07:21:12;;;;;;;15.07;6.57;;;13.40;79.20;;;;;;5102414;28;20024;-80
2022/11/19 07:23:38;;;;;;;11.70;6.72;;;13.40;79.20;;;;;;5101449;28;20511;-81
2022/11/19 07:26:03;;;;;;;12.02;6.45;;;13.40;79.40;;;;;;5101844;28;20055;-80
2022/11/19 07:28:29;;;;;;;13.73;7.32;;;13.40;79.40;;;;;;5082868;28;20058;-80
2022/11/19 07:30:54;;;;;;;11.95;6.18;;;13.40;79.60;;;;;;5082564;28;20020;-83
2022/11/19 07:33:20;;;;;;;11.55;6.60;;;13.40;79.60;;;;;;5076041;28;20427;-81
2022/11/19 07:35:45;;;;;;;10.40;6.43;;;13.40;79.60;;;;;;5097873;28;20048;-81
2022/11/19 07:38:11;;;;;;;11.38;6.18;;;13.40;79.60;;;;;;5102078;28;20024;-80
2022/11/19 07:40:36;;;;;;;11.10;7.28;;;13.40;79.50;;;;;;5082364;28;20016;-79
2022/11/19 07:43:02;;;;;;;9.43;6.00;;;13.40;79.60;;;;;;5081549;28;20024;-80
2022/11/19 07:45:27;;;;;;;10.82;6.82;;;13.50;79.70;;;;;;5081421;28;20043;-78
2022/11/19 07:47:53;;;;;;;10.57;6.40;;;13.50;79.70;;;;;;5095641;28;20073;-80
2022/11/19 07:50:19;;;;;;;10.48;6.30;;;13.50;79.60;;;;;;5078609;28;20016;-79
2022/11/19 07:52:44;;;;;;;11.55;6.25;;;13.50;79.60;;;;;;5079745;28;20028;-80
2022/11/19 07:55:10;;;;;;;10.60;6.65;;;13.50;79.50;;;;;;5080528;28;20028;-78
2022/11/19 07:57:35;;;;;;;10.32;6.57;;;13.50;79.50;;;;;;5097009;28;20024;-79
2022/11/19 08:00:02;;;;;;;9.82;6.50;;;13.60;79.50;;;;;;5079009;28;20035;-80
2022/11/19 08:02:28;;;;;;;10.48;6.40;;;13.60;79.40;;;;;;5067440;28;20170;-81
2022/11/19 08:04:53;;;;;;;10.15;6.15;;;13.60;79.30;;;;;;5063121;28;20067;-81
2022/11/19 08:07:19;;;;;;;10.93;6.50;;;13.70;79.30;;;;;;5060875;28;20175;-79
2022/11/19 08:09:44;;;;;;;8.40;6.00;;;13.70;79.20;;;;;;5076140;28;20056;-80
2022/11/19 08:12:10;;;;;;;10.65;6.07;;;13.80;79.10;;;;;;5081185;28;20020;-80
2022/11/19 08:14:35;;;;;;;8.80;6.15;;;13.80;78.90;;;;;;5080784;28;20032;-83
2022/11/19 08:19:45;;;;;;;9.77;6.20;;;13.80;78.70;;;;;;5078500;28;20115;-79
2022/11/19 08:22:11;;;;;;;9.07;6.00;;;13.90;78.60;;;;;;5057479;28;20119;-79
2022/11/19 08:24:37;;;;;;;8.82;5.53;;;13.90;78.60;;;;;;5057348;28;20108;-79
2022/11/19 08:27:04;;;;;;;9.30;6.15;;;14.00;78.50;;;;;;5075730;28;20048;-80
2022/11/19 08:29:29;;;;;;;8.38;5.65;;;14.00;78.40;;;;;;5057024;28;20103;-80
2022/11/19 08:31:55;;;;;;;9.38;5.90;;;14.00;78.20;;;;;;5074689;28;20122;-80
2022/11/19 08:34:21;;;;;;;9.07;5.68;;;14.10;78.20;;;;;;5055839;28;20389;-79
2022/11/19 08:36:47;;;;;;;8.82;5.97;;;14.10;78.00;;;;;;5057570;28;20533;-78
2022/11/19 08:39:12;;;;;;;9.13;6.03;;;14.10;77.90;;;;;;5076195;28;20126;-81
2022/11/19 08:44:22;;;;;;;9.85;6.38;;;14.10;77.70;;;;;;5074759;28;20039;-79
2022/11/19 08:46:47;;;;;;;8.60;5.85;;;14.10;77.50;;;;;;5072353;28;20016;-80
2022/11/19 08:49:13;;;;;;;8.02;5.78;;;14.20;77.40;;;;;;5056959;28;20086;-79
2022/11/19 08:51:39;;;;;;;9.50;5.97;;;14.30;77.30;;;;;;5057231;28;20078;-79
2022/11/19 08:54:05;;;;;;;8.40;6.07;;;14.30;77.00;;;;;;5075430;28;20025;-78
2022/11/19 08:56:30;;;;;;;7.70;5.80;;;14.40;77.10;;;;;;5055991;28;20563;-78
2022/11/19 08:58:56;;;;;;;8.23;5.85;;;14.40;76.90;;;;;;5073598;28;20071;-79
2022/11/19 09:01:22;;;;;;;8.73;6.03;;;14.40;77.30;;;;;;5057159;28;20124;-83
2022/11/19 09:03:48;;;;;;;8.13;5.43;;;14.40;77.20;;;;;;5059766;28;20503;-80
2022/11/19 09:06:14;;;;;;;9.40;6.13;;;14.40;77.00;;;;;;5055347;28;20027;-79
2022/11/19 09:08:40;;;;;;;7.70;5.40;;;14.50;76.90;;;;;;5055832;28;20503;-79
2022/11/19 09:11:13;;;;;;;7.32;5.47;;;14.50;76.90;;;;;;5055300;28;20489;-78
2022/11/19 09:13:38;;;;;;;7.57;5.50;;;14.50;76.90;;;;;;5074228;28;20105;-78
2022/11/19 09:16:05;;;;;;;7.18;5.50;;;14.50;76.80;;;;;;5075139;28;20446;-80
2022/11/19 09:18:31;;;;;;;7.95;5.82;;;14.50;76.80;;;;;;5079326;28;20162;-81
2022/11/19 09:20:58;;;;;;;7.53;5.55;;;14.50;76.70;;;;;;5077286;28;20028;-80
2022/11/19 09:23:25;;;;;;;24.63;6.10;;;14.60;76.80;;;;;;5059634;28;20024;-80
2022/11/19 09:25:58;;;;;;;8.13;5.65;;;14.60;76.80;;;;;;5060747;28;20400;-79
2022/11/19 09:28:25;;;;;;;8.00;5.63;;;14.60;76.70;;;;;;5059259;28;20404;-81
2022/11/19 09:31:03;;;;;;;7.93;5.40;;;14.60;76.70;;;;;;5077503;28;20017;-80
2022/11/19 09:33:30;;;;;;;8.10;5.22;;;14.60;76.70;;;;;;5059193;28;20316;-80
2022/11/19 09:35:56;;;;;;;7.68;5.10;;;14.60;76.70;;;;;;5076551;28;20024;-80
2022/11/19 09:38:21;;;;;;;6.95;5.22;;;14.70;76.60;;;;;;5078595;28;20396;-78
2022/11/19 09:40:53;;;;;;;7.47;5.10;;;14.70;76.60;;;;;;5068278;28;20035;-78
2022/11/19 09:43:52;;;;;;;7.40;5.22;;;14.70;76.60;;;;;;5074600;28;20035;-80
2022/11/19 09:46:24;;;;;;;7.28;4.97;;;14.70;76.60;;;;;;5064217;28;20515;-80
2022/11/19 09:48:53;;;;;;;7.93;5.22;;;14.70;76.60;;;;;;5060350;28;20042;-79
2022/11/19 09:51:28;;;;;;;8.35;5.30;;;14.70;76.50;;;;;;5083505;28;20115;-77
2022/11/19 09:54:04;;;;;;;7.60;5.25;;;14.80;76.60;;;;;;5063978;28;20032;-77
2022/11/19 09:56:35;;;;;;;7.65;4.80;;;14.80;76.40;;;;;;5066516;28;20020;-76
2022/11/19 09:59:06;;;;;;;7.07;4.60;;;14.80;76.40;;;;;;5097023;28;20425;-81
2022/11/19 10:01:34;;;;;;;7.45;4.80;;;14.80;76.40;;;;;;5095118;28;20016;-79
2022/11/19 10:04:00;;;;;;;7.18;4.70;;;14.80;76.30;;;;;;5093672;28;20036;-78
2022/11/19 10:06:42;;;;;;;7.55;4.90;;;14.80;76.50;;;;;;5079996;28;20017;-78
2022/11/19 10:09:20;;;;;;;7.18;5.00;;;14.90;76.20;;;;;;5058530;28;20035;-78
2022/11/19 10:12:00;;;;;;;6.65;4.65;;;14.90;76.00;;;;;;5058640;28;20058;-79
2022/11/19 10:14:40;;;;;;;7.00;4.68;;;14.90;76.00;;;;;;5076527;28;20024;-78
2022/11/19 10:17:33;;;;;;;6.75;4.38;;;15.00;76.10;;;;;;5085102;28;20079;-80
2022/11/19 10:20:09;;;;;;;6.53;4.68;;;15.00;75.90;;;;;;5097657;28;20030;-79
2022/11/19 10:22:50;;;;;;;7.30;4.90;;;15.00;75.80;;;;;;5096821;28;20035;-80
2022/11/19 10:25:37;;;;;;;6.30;4.38;;;15.00;75.80;;;;;;5070688;28;20028;-77
2022/11/19 10:28:26;;;;;;;7.18;4.70;;;15.10;75.90;;;;;;5081278;28;20063;-76
2022/11/19 10:30:57;;;;;;;6.47;4.55;;;15.10;75.90;;;;;;5083577;28;20061;-78
2022/11/19 10:33:32;;;;;;;6.20;4.47;;;15.10;75.90;;;;;;5063873;28;20074;-76
2022/11/19 10:36:06;;;;;;;6.47;4.40;;;15.10;76.60;;;;;;5062118;28;20507;-81
2022/11/19 10:38:36;;;;;;;6.47;4.60;;;15.10;75.70;;;;;;5062893;28;20032;-81
2022/11/19 10:41:11;;;;;;;6.10;4.20;;;15.00;75.80;;;;;;5080566;28;20017;-78
2022/11/19 10:43:50;;;;;;;6.75;4.00;;;15.00;75.80;;;;;;5067057;28;20020;-80
2022/11/19 10:46:19;;;;;;;6.90;4.45;;;15.00;75.80;;;;;;5083885;28;20047;-80
2022/11/19 10:48:49;;;;;;;7.03;4.30;;;15.00;76.20;;;;;;5082104;28;20036;-80
2022/11/19 10:51:32;;;;;;;7.05;4.53;;;14.90;76.00;;;;;;5061197;28;20020;-82
2022/11/19 10:54:01;;;;;;;6.28;3.90;;;15.00;76.00;;;;;;5081592;28;20492;-80
2022/11/19 10:56:39;;;;;;;7.07;4.38;;;15.00;76.10;;;;;;5060030;28;20025;-80
2022/11/19 10:59:18;;;;;;;6.13;3.97;;;15.10;76.40;;;;;;5077085;28;20046;-80
2022/11/19 11:01:46;;;;;;;6.18;4.43;;;15.10;76.30;;;;;;5077651;28;20036;-79
2022/11/19 11:04:19;;;;;;;6.30;4.28;;;15.10;76.00;;;;;;5077793;28;20107;-80
2022/11/19 11:06:56;;;;;;;6.28;4.00;;;15.10;75.80;;;;;;5076675;28;20523;-79
2022/11/19 11:09:42;;;;;;;6.45;4.20;;;15.10;75.60;;;;;;5077910;28;20029;-78
2022/11/19 11:15:21;;;;;;;6.63;4.38;;;15.20;75.60;;;;;;5077259;28;20032;-79
2022/11/19 11:17:48;;;;;;;5.95;3.85;;;15.20;75.50;;;;;;5076090;28;20036;-79
2022/11/19 11:20:16;;;;;;;6.90;4.18;;;15.20;75.50;;;;;;5076415;28;20028;-78
2022/11/19 11:22:44;;;;;;;7.85;4.30;;;15.20;75.40;;;;;;5065421;28;20452;-78
2022/11/19 11:25:25;;;;;;;7.45;3.97;;;15.20;75.30;;;;;;5075917;28;20048;-78
2022/11/19 11:28:17;;;;;;;6.60;4.35;;;15.20;75.20;;;;;;5075138;28;20118;-78
2022/11/19 11:31:03;;;;;;;6.15;4.00;;;15.20;75.30;;;;;;5093792;28;20028;-78
2022/11/19 11:33:32;;;;;;;6.00;3.88;;;15.20;75.40;;;;;;5076043;28;20032;-78
2022/11/19 11:36:02;;;;;;;6.35;4.22;;;15.20;76.00;;;;;;5077911;28;20512;-79
2022/11/19 11:38:28;;;;;;;5.90;3.90;;;15.20;75.80;;;;;;5075531;28;20031;-74
2022/11/19 11:41:04;;;;;;;5.95;3.88;;;15.20;75.70;;;;;;5092148;28;20028;-78
2022/11/19 11:43:32;;;;;;;5.90;3.75;;;15.30;75.70;;;;;;5093393;28;20024;-78
2022/11/19 11:46:01;;;;;;;6.68;4.18;;;15.30;76.40;;;;;;5076211;28;20020;-78
2022/11/19 11:48:33;;;;;;;6.50;3.67;;;15.30;75.70;;;;;;5074958;28;20027;-78
2022/11/19 11:50:59;;;;;;;6.68;3.95;;;15.30;75.70;;;;;;5074533;28;20054;-77
2022/11/19 11:53:31;;;;;;;6.30;3.60;;;15.30;75.40;;;;;;5074958;28;20475;-78
2022/11/19 11:56:01;;;;;;;5.70;3.72;;;15.20;75.20;;;;;;5092890;28;20483;-75
2022/11/19 11:58:33;;;;;;;5.70;3.83;;;15.20;75.40;;;;;;5074292;28;20437;-78
2022/11/19 12:01:13;;;;;;;5.90;3.67;;;15.20;75.50;;;;;;5074707;28;20028;-75
2022/11/19 12:03:53;;;;;;;5.40;3.40;;;15.10;75.60;;;;;;5075266;28;20034;-78
2022/11/19 12:06:21;;;;;;;5.75;3.70;;;15.10;75.80;;;;;;5093806;28;20047;-78
2022/11/19 12:08:49;;;;;;;6.32;3.92;;;15.10;75.90;;;;;;5093356;28;20016;-78
2022/11/19 12:11:52;;;;;;;5.30;3.53;;;15.00;75.90;;;;;;5073359;28;20081;-78
2022/11/19 12:14:18;;;;;;;5.68;3.67;;;15.10;76.00;;;;;;5092494;28;20461;-75
2022/11/19 12:17:12;;;;;;;5.05;3.53;;;15.10;76.00;;;;;;5073885;28;20028;-77
2022/11/19 12:20:12;;;;;;;5.22;3.22;;;15.10;76.00;;;;;;5064719;28;20036;-77
2022/11/19 12:22:57;;;;;;;6.22;3.78;;;15.10;76.00;;;;;;5092609;28;20544;-78
2022/11/19 12:25:46;;;;;;;5.57;3.47;;;15.10;76.10;;;;;;5092369;28;20028;-77
2022/11/19 12:28:43;;;;;;;5.50;3.20;;;15.10;76.70;;;;;;5078496;28;20032;-76
2022/11/19 12:31:27;;;;;;;5.25;3.50;;;15.10;76.40;;;;;;5092351;28;20028;-77
2022/11/19 12:34:22;;;;;;;5.90;3.70;;;15.10;77.00;;;;;;5091526;28;20073;-74
2022/11/19 12:36:55;;;;;;;6.25;3.70;;;15.10;78.40;;;;;;5091427;28;20081;-77
2022/11/19 12:39:27;;;;;;;4.90;3.28;;;15.00;77.90;;;;;;5091920;28;20051;-77
2022/11/19 12:42:07;;;;;;;5.45;3.35;;;15.10;78.30;;;;;;5091299;28;20476;-76
2022/11/19 12:44:59;;;;;;;5.23;3.37;;;15.00;78.20;;;;;;5092188;28;20373;-77
2022/11/19 12:47:49;;;;;;;5.13;3.17;;;15.00;78.60;;;;;;5073798;28;20246;-74
2022/11/19 12:51:04;;;;;;;5.97;3.20;;;15.00;78.80;;;;;;5092049;28;20025;-75
2022/11/19 12:53:59;;;;;;;5.78;3.60;;;15.00;77.70;;;;;;5071656;28;20024;-78
2022/11/19 12:56:24;;;;;;;4.82;3.25;;;15.00;78.50;;;;;;5033775;28;20032;-79
2022/11/19 12:59:22;;;;;;;5.10;3.28;;;15.00;77.90;;;;;;5093156;28;20099;-78
2022/11/19 13:01:52;;;;;;;5.50;3.55;;;15.00;78.00;;;;;;5091260;28;20069;-75
2022/11/19 13:04:41;;;;;;;6.35;3.28;;;15.00;77.60;;;;;;5074412;28;20403;-78
2022/11/19 13:07:18;;;;;;;4.78;2.85;;;15.00;76.80;;;;;;5076339;28;20114;-78
2022/11/19 13:09:49;;;;;;;5.25;3.17;;;15.00;76.50;;;;;;5094666;28;20028;-78
2022/11/19 13:12:19;;;;;;;12.30;3.63;;;15.00;76.30;;;;;;5093756;28;20024;-78
2022/11/19 13:14:55;;;;;;;9.45;3.70;;;15.10;76.40;;;;;;5094383;28;20399;-78
2022/11/19 13:17:32;;;;;;;8.07;3.70;;;15.00;75.50;;;;;;5075681;28;20024;-78
2022/11/19 13:20:03;;;;;;;9.23;3.50;;;15.00;75.30;;;;;;5094364;28;20028;-78
2022/11/19 13:22:34;;;;;;;5.95;3.22;;;14.90;75.40;;;;;;5079703;28;20024;-79
2022/11/19 13:25:03;;;;;;;8.32;3.25;;;14.90;76.20;;;;;;5077861;28;20158;-77
2022/11/19 13:27:29;;;;;;;5.55;3.28;;;14.90;76.10;;;;;;5096612;28;20051;-79
2022/11/19 13:30:03;;;;;;;6.45;3.10;;;14.80;76.20;;;;;;5098075;28;20081;-78